sensor_id;sensor_type;location;lat;lon;timestamp;P1;durP1;ratioP1;P2;durP2;ratioP2
7989;SDS011;4040;42.848;23.034;2023-12-14T00:01:19;49.13;;;21.90;;
7989;SDS011;4040;42.848;23.034;2023-12-14T00:03:47;64.43;;;24.40;;
7989;SDS011;4040;42.848;23.034;2023-12-14T00:06:15;77.53;;;28.90;;
7989;SDS011;4040;42.848;23.034;2023-12-14T00:08:42;50.33;;;22.60;;
7989;SDS011;4040;42.848;23.034;2023-12-14T00:11:10;37.07;;;17.20;;
7989;SDS011;4040;42.848;23.034;2023-12-14T00:13:39;34.57;;;15.53;;
7989;SDS011;4040;42.848;23.034;2023-12-14T00:16:08;25.37;;;13.60;;
7989;SDS011;4040;42.848;23.034;2023-12-14T00:18:35;24.10;;;12.97;;
7989;SDS011;4040;42.848;23.034;2023-12-14T00:21:03;30.23;;;14.13;;
7989;SDS011;4040;42.848;23.034;2023-12-14T00:23:31;28.60;;;15.23;;
7989;SDS011;4040;42.848;23.034;2023-12-14T00:26:00;24.90;;;13.50;;
7989;SDS011;4040;42.848;23.034;2023-12-14T00:28:28;22.23;;;9.83;;
7989;SDS011;4040;42.848;23.034;2023-12-14T00:30:57;23.07;;;10.97;;
7989;SDS011;4040;42.848;23.034;2023-12-14T00:33:24;15.10;;;8.50;;
7989;SDS011;4040;42.848;23.034;2023-12-14T00:35:52;17.40;;;8.60;;
7989;SDS011;4040;42.848;23.034;2023-12-14T00:38:19;13.60;;;7.50;;
7989;SDS011;4040;42.848;23.034;2023-12-14T00:40:47;15.07;;;7.30;;
7989;SDS011;4040;42.848;23.034;2023-12-14T00:43:14;11.63;;;6.63;;
7989;SDS011;4040;42.848;23.034;2023-12-14T00:45:42;13.80;;;7.33;;
7989;SDS011;4040;42.848;23.034;2023-12-14T00:48:11;10.97;;;6.80;;
7989;SDS011;4040;42.848;23.034;2023-12-14T00:50:38;12.27;;;6.93;;
7989;SDS011;4040;42.848;23.034;2023-12-14T00:53:06;9.80;;;5.47;;
7989;SDS011;4040;42.848;23.034;2023-12-14T00:55:33;10.27;;;6.07;;
7989;SDS011;4040;42.848;23.034;2023-12-14T00:58:01;8.83;;;5.70;;
7989;SDS011;4040;42.848;23.034;2023-12-14T01:00:28;9.07;;;5.40;;
7989;SDS011;4040;42.848;23.034;2023-12-14T01:02:56;5.90;;;4.07;;
7989;SDS011;4040;42.848;23.034;2023-12-14T01:05:25;9.53;;;4.90;;
7989;SDS011;4040;42.848;23.034;2023-12-14T01:07:52;8.03;;;4.47;;
7989;SDS011;4040;42.848;23.034;2023-12-14T01:10:20;7.03;;;4.73;;
7989;SDS011;4040;42.848;23.034;2023-12-14T01:12:47;6.67;;;4.63;;
7989;SDS011;4040;42.848;23.034;2023-12-14T01:15:15;6.20;;;4.00;;
7989;SDS011;4040;42.848;23.034;2023-12-14T01:17:43;5.90;;;3.50;;
7989;SDS011;4040;42.848;23.034;2023-12-14T01:20:10;12.33;;;6.50;;
7989;SDS011;4040;42.848;23.034;2023-12-14T01:22:39;12.70;;;6.73;;
7989;SDS011;4040;42.848;23.034;2023-12-14T01:25:07;14.00;;;8.43;;
7989;SDS011;4040;42.848;23.034;2023-12-14T01:27:35;8.60;;;5.50;;
7989;SDS011;4040;42.848;23.034;2023-12-14T01:30:02;8.13;;;3.87;;
7989;SDS011;4040;42.848;23.034;2023-12-14T01:32:30;7.37;;;4.90;;
7989;SDS011;4040;42.848;23.034;2023-12-14T01:34:58;7.90;;;4.77;;
7989;SDS011;4040;42.848;23.034;2023-12-14T01:37:25;8.87;;;5.83;;
7989;SDS011;4040;42.848;23.034;2023-12-14T01:39:54;8.37;;;5.97;;
7989;SDS011;4040;42.848;23.034;2023-12-14T01:42:22;11.80;;;6.50;;
7989;SDS011;4040;42.848;23.034;2023-12-14T01:44:49;23.67;;;10.27;;
7989;SDS011;4040;42.848;23.034;2023-12-14T01:47:17;26.63;;;12.07;;
7989;SDS011;4040;42.848;23.034;2023-12-14T01:49:44;37.77;;;16.87;;
7989;SDS011;4040;42.848;23.034;2023-12-14T01:52:10;31.63;;;13.73;;
7989;SDS011;4040;42.848;23.034;2023-12-14T01:54:38;21.53;;;10.67;;
7989;SDS011;4040;42.848;23.034;2023-12-14T01:57:07;22.33;;;11.03;;
7989;SDS011;4040;42.848;23.034;2023-12-14T01:59:34;17.50;;;9.97;;
7989;SDS011;4040;42.848;23.034;2023-12-14T02:02:02;17.10;;;9.63;;
7989;SDS011;4040;42.848;23.034;2023-12-14T02:04:30;18.13;;;9.30;;
7989;SDS011;4040;42.848;23.034;2023-12-14T02:06:58;17.87;;;9.90;;
7989;SDS011;4040;42.848;23.034;2023-12-14T02:09:26;13.07;;;7.97;;
7989;SDS011;4040;42.848;23.034;2023-12-14T02:11:53;19.37;;;10.67;;
7989;SDS011;4040;42.848;23.034;2023-12-14T02:14:22;19.07;;;10.30;;
7989;SDS011;4040;42.848;23.034;2023-12-14T02:16:50;24.17;;;10.90;;
7989;SDS011;4040;42.848;23.034;2023-12-14T02:19:17;20.77;;;10.47;;
7989;SDS011;4040;42.848;23.034;2023-12-14T02:21:44;19.40;;;10.70;;
7989;SDS011;4040;42.848;23.034;2023-12-14T02:24:13;18.90;;;10.60;;
7989;SDS011;4040;42.848;23.034;2023-12-14T02:26:41;28.00;;;13.43;;
7989;SDS011;4040;42.848;23.034;2023-12-14T02:29:08;24.00;;;11.67;;
7989;SDS011;4040;42.848;23.034;2023-12-14T02:31:36;24.20;;;13.47;;
7989;SDS011;4040;42.848;23.034;2023-12-14T02:34:03;24.80;;;11.47;;
7989;SDS011;4040;42.848;23.034;2023-12-14T02:36:31;23.93;;;11.30;;
7989;SDS011;4040;42.848;23.034;2023-12-14T02:38:58;21.97;;;12.33;;
7989;SDS011;4040;42.848;23.034;2023-12-14T02:41:27;15.40;;;10.07;;
7989;SDS011;4040;42.848;23.034;2023-12-14T02:43:54;22.20;;;12.23;;
7989;SDS011;4040;42.848;23.034;2023-12-14T02:46:22;83.97;;;33.23;;
7989;SDS011;4040;42.848;23.034;2023-12-14T02:48:49;72.87;;;27.90;;
7989;SDS011;4040;42.848;23.034;2023-12-14T02:51:17;50.50;;;25.03;;
7989;SDS011;4040;42.848;23.034;2023-12-14T02:53:44;62.40;;;27.83;;
7989;SDS011;4040;42.848;23.034;2023-12-14T02:56:12;67.20;;;29.10;;
7989;SDS011;4040;42.848;23.034;2023-12-14T02:58:41;58.57;;;26.33;;
7989;SDS011;4040;42.848;23.034;2023-12-14T03:01:08;45.43;;;21.03;;
7989;SDS011;4040;42.848;23.034;2023-12-14T03:03:37;47.10;;;24.13;;
7989;SDS011;4040;42.848;23.034;2023-12-14T03:06:05;44.63;;;21.67;;
7989;SDS011;4040;42.848;23.034;2023-12-14T03:08:33;31.93;;;17.93;;
7989;SDS011;4040;42.848;23.034;2023-12-14T03:11:00;34.90;;;19.93;;
7989;SDS011;4040;42.848;23.034;2023-12-14T03:13:28;55.97;;;22.80;;
7989;SDS011;4040;42.848;23.034;2023-12-14T03:15:57;46.00;;;21.70;;
7989;SDS011;4040;42.848;23.034;2023-12-14T03:18:25;39.30;;;18.97;;
7989;SDS011;4040;42.848;23.034;2023-12-14T03:20:53;41.70;;;20.13;;
7989;SDS011;4040;42.848;23.034;2023-12-14T03:23:20;80.10;;;31.63;;
7989;SDS011;4040;42.848;23.034;2023-12-14T03:25:47;58.83;;;25.80;;
7989;SDS011;4040;42.848;23.034;2023-12-14T03:28:15;57.07;;;24.63;;
7989;SDS011;4040;42.848;23.034;2023-12-14T03:30:42;56.93;;;25.17;;
7989;SDS011;4040;42.848;23.034;2023-12-14T03:33:11;70.17;;;30.93;;
7989;SDS011;4040;42.848;23.034;2023-12-14T03:35:39;62.27;;;26.63;;
7989;SDS011;4040;42.848;23.034;2023-12-14T03:38:07;43.30;;;19.57;;
7989;SDS011;4040;42.848;23.034;2023-12-14T03:40:35;68.23;;;28.97;;
7989;SDS011;4040;42.848;23.034;2023-12-14T03:43:02;52.57;;;25.20;;
7989;SDS011;4040;42.848;23.034;2023-12-14T03:45:29;54.57;;;24.83;;
7989;SDS011;4040;42.848;23.034;2023-12-14T03:47:57;56.97;;;26.37;;
7989;SDS011;4040;42.848;23.034;2023-12-14T03:50:26;50.77;;;26.17;;
7989;SDS011;4040;42.848;23.034;2023-12-14T03:52:54;54.07;;;26.13;;
7989;SDS011;4040;42.848;23.034;2023-12-14T03:55:22;49.63;;;24.87;;
7989;SDS011;4040;42.848;23.034;2023-12-14T03:57:49;48.73;;;24.13;;
7989;SDS011;4040;42.848;23.034;2023-12-14T04:00:17;38.87;;;22.60;;
7989;SDS011;4040;42.848;23.034;2023-12-14T04:02:44;36.80;;;21.23;;
7989;SDS011;4040;42.848;23.034;2023-12-14T04:05:12;45.07;;;23.37;;
7989;SDS011;4040;42.848;23.034;2023-12-14T04:07:41;46.57;;;24.90;;
7989;SDS011;4040;42.848;23.034;2023-12-14T04:10:08;42.30;;;21.63;;
7989;SDS011;4040;42.848;23.034;2023-12-14T04:12:36;36.50;;;17.13;;
7989;SDS011;4040;42.848;23.034;2023-12-14T04:15:05;51.57;;;21.10;;
7989;SDS011;4040;42.848;23.034;2023-12-14T04:17:34;32.73;;;15.77;;
7989;SDS011;4040;42.848;23.034;2023-12-14T04:20:01;26.27;;;12.93;;
7989;SDS011;4040;42.848;23.034;2023-12-14T04:22:31;16.53;;;9.47;;
7989;SDS011;4040;42.848;23.034;2023-12-14T04:25:00;18.97;;;9.90;;
7989;SDS011;4040;42.848;23.034;2023-12-14T04:27:27;19.03;;;9.73;;
7989;SDS011;4040;42.848;23.034;2023-12-14T04:29:55;19.33;;;8.33;;
7989;SDS011;4040;42.848;23.034;2023-12-14T04:32:22;17.60;;;9.70;;
7989;SDS011;4040;42.848;23.034;2023-12-14T04:34:50;23.07;;;11.83;;
7989;SDS011;4040;42.848;23.034;2023-12-14T04:37:17;28.10;;;14.63;;
7989;SDS011;4040;42.848;23.034;2023-12-14T04:39:45;40.40;;;19.83;;
7989;SDS011;4040;42.848;23.034;2023-12-14T04:42:14;36.90;;;19.47;;
7989;SDS011;4040;42.848;23.034;2023-12-14T04:44:41;33.47;;;15.80;;
7989;SDS011;4040;42.848;23.034;2023-12-14T04:47:09;27.90;;;14.47;;
7989;SDS011;4040;42.848;23.034;2023-12-14T04:49:36;23.97;;;14.53;;
7989;SDS011;4040;42.848;23.034;2023-12-14T04:52:04;25.77;;;15.37;;
7989;SDS011;4040;42.848;23.034;2023-12-14T04:54:31;23.10;;;13.00;;
7989;SDS011;4040;42.848;23.034;2023-12-14T04:57:01;26.83;;;14.80;;
7989;SDS011;4040;42.848;23.034;2023-12-14T04:59:29;30.17;;;16.60;;
7989;SDS011;4040;42.848;23.034;2023-12-14T05:01:57;28.57;;;16.17;;
7989;SDS011;4040;42.848;23.034;2023-12-14T05:04:24;35.23;;;18.17;;
7989;SDS011;4040;42.848;23.034;2023-12-14T05:06:52;33.07;;;18.80;;
7989;SDS011;4040;42.848;23.034;2023-12-14T05:09:19;29.30;;;14.33;;
7989;SDS011;4040;42.848;23.034;2023-12-14T05:11:47;35.27;;;18.97;;
7989;SDS011;4040;42.848;23.034;2023-12-14T05:14:14;40.87;;;21.90;;
7989;SDS011;4040;42.848;23.034;2023-12-14T05:16:43;36.20;;;18.00;;
7989;SDS011;4040;42.848;23.034;2023-12-14T05:19:11;29.77;;;17.27;;
7989;SDS011;4040;42.848;23.034;2023-12-14T05:21:39;21.20;;;11.93;;
7989;SDS011;4040;42.848;23.034;2023-12-14T05:24:06;26.87;;;11.23;;
7989;SDS011;4040;42.848;23.034;2023-12-14T05:26:34;26.27;;;14.07;;
7989;SDS011;4040;42.848;23.034;2023-12-14T05:29:01;23.43;;;12.13;;
7989;SDS011;4040;42.848;23.034;2023-12-14T05:31:29;23.43;;;14.77;;
7989;SDS011;4040;42.848;23.034;2023-12-14T05:33:58;27.47;;;15.47;;
7989;SDS011;4040;42.848;23.034;2023-12-14T05:36:25;24.30;;;13.70;;
7989;SDS011;4040;42.848;23.034;2023-12-14T05:38:52;24.90;;;14.87;;
7989;SDS011;4040;42.848;23.034;2023-12-14T05:41:20;23.53;;;13.70;;
7989;SDS011;4040;42.848;23.034;2023-12-14T05:43:47;22.10;;;13.03;;
7989;SDS011;4040;42.848;23.034;2023-12-14T05:46:24;28.87;;;15.03;;
7989;SDS011;4040;42.848;23.034;2023-12-14T05:48:51;34.67;;;18.63;;
7989;SDS011;4040;42.848;23.034;2023-12-14T05:51:30;38.77;;;20.43;;
7989;SDS011;4040;42.848;23.034;2023-12-14T05:53:59;32.30;;;18.10;;
7989;SDS011;4040;42.848;23.034;2023-12-14T05:56:26;34.07;;;17.13;;
7989;SDS011;4040;42.848;23.034;2023-12-14T05:58:54;31.57;;;16.03;;
7989;SDS011;4040;42.848;23.034;2023-12-14T06:01:23;32.90;;;17.60;;
7989;SDS011;4040;42.848;23.034;2023-12-14T06:03:50;30.60;;;16.77;;
7989;SDS011;4040;42.848;23.034;2023-12-14T06:06:18;30.40;;;15.97;;
7989;SDS011;4040;42.848;23.034;2023-12-14T06:08:47;37.37;;;18.37;;
7989;SDS011;4040;42.848;23.034;2023-12-14T06:11:14;50.50;;;24.30;;
7989;SDS011;4040;42.848;23.034;2023-12-14T06:13:42;46.57;;;22.93;;
7989;SDS011;4040;42.848;23.034;2023-12-14T06:16:09;37.43;;;20.47;;
7989;SDS011;4040;42.848;23.034;2023-12-14T06:18:38;41.90;;;22.47;;
7989;SDS011;4040;42.848;23.034;2023-12-14T06:21:07;35.93;;;18.27;;
7989;SDS011;4040;42.848;23.034;2023-12-14T06:23:35;19.20;;;10.67;;
7989;SDS011;4040;42.848;23.034;2023-12-14T06:26:04;21.67;;;10.77;;
7989;SDS011;4040;42.848;23.034;2023-12-14T06:28:32;24.87;;;11.07;;
7989;SDS011;4040;42.848;23.034;2023-12-14T06:30:59;25.43;;;14.30;;
7989;SDS011;4040;42.848;23.034;2023-12-14T06:33:27;24.43;;;11.87;;
7989;SDS011;4040;42.848;23.034;2023-12-14T06:35:55;29.50;;;14.50;;
7989;SDS011;4040;42.848;23.034;2023-12-14T06:38:22;45.20;;;21.20;;
7989;SDS011;4040;42.848;23.034;2023-12-14T06:40:50;57.30;;;21.63;;
7989;SDS011;4040;42.848;23.034;2023-12-14T06:43:19;42.73;;;20.47;;
7989;SDS011;4040;42.848;23.034;2023-12-14T06:45:46;48.10;;;21.63;;
7989;SDS011;4040;42.848;23.034;2023-12-14T06:48:14;30.73;;;15.20;;
7989;SDS011;4040;42.848;23.034;2023-12-14T06:50:41;26.40;;;13.87;;
7989;SDS011;4040;42.848;23.034;2023-12-14T06:53:09;24.10;;;13.13;;
7989;SDS011;4040;42.848;23.034;2023-12-14T06:55:36;42.47;;;19.40;;
7989;SDS011;4040;42.848;23.034;2023-12-14T06:58:03;19.70;;;11.87;;
7989;SDS011;4040;42.848;23.034;2023-12-14T07:00:37;23.97;;;14.57;;
7989;SDS011;4040;42.848;23.034;2023-12-14T07:03:05;10.13;;;6.67;;
7989;SDS011;4040;42.848;23.034;2023-12-14T07:05:32;28.13;;;13.63;;
7989;SDS011;4040;42.848;23.034;2023-12-14T07:08:00;134.60;;;49.30;;
7989;SDS011;4040;42.848;23.034;2023-12-14T07:10:27;464.03;;;169.00;;
7989;SDS011;4040;42.848;23.034;2023-12-14T07:12:55;245.57;;;94.37;;
7989;SDS011;4040;42.848;23.034;2023-12-14T07:15:22;167.00;;;62.93;;
7989;SDS011;4040;42.848;23.034;2023-12-14T07:17:52;140.80;;;55.70;;
7989;SDS011;4040;42.848;23.034;2023-12-14T07:20:19;266.17;;;103.43;;
7989;SDS011;4040;42.848;23.034;2023-12-14T07:22:47;203.80;;;84.67;;
7989;SDS011;4040;42.848;23.034;2023-12-14T07:25:14;228.30;;;90.57;;
7989;SDS011;4040;42.848;23.034;2023-12-14T07:27:42;218.93;;;83.23;;
7989;SDS011;4040;42.848;23.034;2023-12-14T07:30:12;95.43;;;44.93;;
7989;SDS011;4040;42.848;23.034;2023-12-14T07:32:40;110.60;;;49.77;;
7989;SDS011;4040;42.848;23.034;2023-12-14T07:35:08;107.93;;;51.73;;
7989;SDS011;4040;42.848;23.034;2023-12-14T07:37:36;88.90;;;44.07;;
7989;SDS011;4040;42.848;23.034;2023-12-14T07:40:04;57.37;;;29.50;;
7989;SDS011;4040;42.848;23.034;2023-12-14T07:42:33;52.93;;;28.43;;
7989;SDS011;4040;42.848;23.034;2023-12-14T07:45:01;104.93;;;44.43;;
7989;SDS011;4040;42.848;23.034;2023-12-14T07:47:29;124.40;;;51.17;;
7989;SDS011;4040;42.848;23.034;2023-12-14T07:49:57;112.67;;;49.77;;
7989;SDS011;4040;42.848;23.034;2023-12-14T07:52:26;97.33;;;45.57;;
7989;SDS011;4040;42.848;23.034;2023-12-14T07:54:53;87.20;;;35.00;;
7989;SDS011;4040;42.848;23.034;2023-12-14T07:57:21;95.50;;;42.50;;
7989;SDS011;4040;42.848;23.034;2023-12-14T07:59:49;85.80;;;42.13;;
7989;SDS011;4040;42.848;23.034;2023-12-14T08:02:16;99.77;;;48.30;;
7989;SDS011;4040;42.848;23.034;2023-12-14T08:04:44;236.43;;;91.93;;
7989;SDS011;4040;42.848;23.034;2023-12-14T08:07:11;232.53;;;94.33;;
7989;SDS011;4040;42.848;23.034;2023-12-14T08:09:40;155.90;;;68.53;;
7989;SDS011;4040;42.848;23.034;2023-12-14T08:12:07;115.33;;;52.10;;
7989;SDS011;4040;42.848;23.034;2023-12-14T08:14:35;97.63;;;44.93;;
7989;SDS011;4040;42.848;23.034;2023-12-14T08:17:03;109.17;;;51.37;;
7989;SDS011;4040;42.848;23.034;2023-12-14T08:19:30;153.23;;;70.33;;
7989;SDS011;4040;42.848;23.034;2023-12-14T08:21:58;157.10;;;68.53;;
7989;SDS011;4040;42.848;23.034;2023-12-14T08:24:25;109.30;;;50.73;;
7989;SDS011;4040;42.848;23.034;2023-12-14T08:26:53;95.80;;;44.17;;
7989;SDS011;4040;42.848;23.034;2023-12-14T08:29:20;88.87;;;43.03;;
7989;SDS011;4040;42.848;23.034;2023-12-14T08:31:48;75.83;;;38.83;;
7989;SDS011;4040;42.848;23.034;2023-12-14T08:34:16;72.90;;;35.10;;
7989;SDS011;4040;42.848;23.034;2023-12-14T08:36:43;64.30;;;35.10;;
7989;SDS011;4040;42.848;23.034;2023-12-14T08:39:11;75.63;;;33.33;;
7989;SDS011;4040;42.848;23.034;2023-12-14T08:41:38;84.13;;;41.93;;
7989;SDS011;4040;42.848;23.034;2023-12-14T08:44:07;83.37;;;44.77;;
7989;SDS011;4040;42.848;23.034;2023-12-14T08:46:38;108.83;;;51.67;;
7989;SDS011;4040;42.848;23.034;2023-12-14T08:49:06;122.10;;;55.93;;
7989;SDS011;4040;42.848;23.034;2023-12-14T08:51:33;95.20;;;47.53;;
7989;SDS011;4040;42.848;23.034;2023-12-14T08:54:01;76.03;;;38.53;;
7989;SDS011;4040;42.848;23.034;2023-12-14T08:56:29;60.00;;;31.10;;
7989;SDS011;4040;42.848;23.034;2023-12-14T08:58:57;25.73;;;13.80;;
7989;SDS011;4040;42.848;23.034;2023-12-14T09:01:27;20.67;;;9.83;;
7989;SDS011;4040;42.848;23.034;2023-12-14T09:03:54;11.53;;;6.13;;
7989;SDS011;4040;42.848;23.034;2023-12-14T09:06:22;8.20;;;5.73;;
7989;SDS011;4040;42.848;23.034;2023-12-14T09:08:49;9.43;;;6.10;;
7989;SDS011;4040;42.848;23.034;2023-12-14T09:11:17;15.63;;;7.17;;
7989;SDS011;4040;42.848;23.034;2023-12-14T09:13:44;7.73;;;5.07;;
7989;SDS011;4040;42.848;23.034;2023-12-14T09:16:12;5.60;;;4.37;;
7989;SDS011;4040;42.848;23.034;2023-12-14T09:18:41;8.23;;;5.07;;
7989;SDS011;4040;42.848;23.034;2023-12-14T09:21:08;10.83;;;6.63;;
7989;SDS011;4040;42.848;23.034;2023-12-14T09:23:36;12.50;;;7.40;;
7989;SDS011;4040;42.848;23.034;2023-12-14T09:26:03;11.20;;;7.03;;
7989;SDS011;4040;42.848;23.034;2023-12-14T09:28:31;16.63;;;10.70;;
7989;SDS011;4040;42.848;23.034;2023-12-14T09:30:58;17.43;;;10.20;;
7989;SDS011;4040;42.848;23.034;2023-12-14T09:33:26;12.53;;;8.53;;
7989;SDS011;4040;42.848;23.034;2023-12-14T09:35:55;18.07;;;10.30;;
7989;SDS011;4040;42.848;23.034;2023-12-14T09:38:22;15.40;;;8.37;;
7989;SDS011;4040;42.848;23.034;2023-12-14T09:40:50;10.97;;;6.33;;
7989;SDS011;4040;42.848;23.034;2023-12-14T09:43:17;8.57;;;4.57;;
7989;SDS011;4040;42.848;23.034;2023-12-14T09:45:46;8.60;;;5.07;;
7989;SDS011;4040;42.848;23.034;2023-12-14T09:48:15;6.40;;;4.47;;
7989;SDS011;4040;42.848;23.034;2023-12-14T09:50:42;6.90;;;4.77;;
7989;SDS011;4040;42.848;23.034;2023-12-14T09:53:12;8.30;;;5.20;;
7989;SDS011;4040;42.848;23.034;2023-12-14T09:55:40;7.40;;;4.07;;
7989;SDS011;4040;42.848;23.034;2023-12-14T09:58:07;7.37;;;4.73;;
7989;SDS011;4040;42.848;23.034;2023-12-14T10:00:37;9.07;;;4.80;;
7989;SDS011;4040;42.848;23.034;2023-12-14T10:03:18;6.10;;;4.57;;
7989;SDS011;4040;42.848;23.034;2023-12-14T10:05:47;12.20;;;4.87;;
7989;SDS011;4040;42.848;23.034;2023-12-14T10:08:17;6.13;;;3.87;;
7989;SDS011;4040;42.848;23.034;2023-12-14T10:10:45;5.30;;;3.93;;
7989;SDS011;4040;42.848;23.034;2023-12-14T10:13:16;5.20;;;3.80;;
7989;SDS011;4040;42.848;23.034;2023-12-14T10:15:44;6.47;;;4.17;;
7989;SDS011;4040;42.848;23.034;2023-12-14T10:18:17;5.90;;;3.83;;
7989;SDS011;4040;42.848;23.034;2023-12-14T10:20:49;8.13;;;5.67;;
7989;SDS011;4040;42.848;23.034;2023-12-14T10:23:18;5.27;;;3.10;;
7989;SDS011;4040;42.848;23.034;2023-12-14T10:25:46;3.93;;;2.87;;
7989;SDS011;4040;42.848;23.034;2023-12-14T10:28:13;5.67;;;2.53;;
7989;SDS011;4040;42.848;23.034;2023-12-14T10:30:41;3.10;;;2.50;;
7989;SDS011;4040;42.848;23.034;2023-12-14T10:33:09;5.20;;;2.50;;
7989;SDS011;4040;42.848;23.034;2023-12-14T10:35:36;5.97;;;2.10;;
7989;SDS011;4040;42.848;23.034;2023-12-14T10:38:04;4.30;;;2.03;;
7989;SDS011;4040;42.848;23.034;2023-12-14T10:40:33;2.53;;;1.90;;
7989;SDS011;4040;42.848;23.034;2023-12-14T10:43:05;2.40;;;1.57;;
7989;SDS011;4040;42.848;23.034;2023-12-14T10:45:33;10.40;;;4.40;;
7989;SDS011;4040;42.848;23.034;2023-12-14T10:48:01;7.23;;;3.40;;
7989;SDS011;4040;42.848;23.034;2023-12-14T10:50:30;2.80;;;1.90;;
7989;SDS011;4040;42.848;23.034;2023-12-14T10:52:58;6.13;;;3.20;;
7989;SDS011;4040;42.848;23.034;2023-12-14T10:55:27;6.90;;;3.17;;
7989;SDS011;4040;42.848;23.034;2023-12-14T10:58:02;2.77;;;1.80;;
7989;SDS011;4040;42.848;23.034;2023-12-14T11:00:30;2.00;;;1.70;;
7989;SDS011;4040;42.848;23.034;2023-12-14T11:02:58;3.67;;;2.30;;
7989;SDS011;4040;42.848;23.034;2023-12-14T11:05:27;3.37;;;1.77;;
7989;SDS011;4040;42.848;23.034;2023-12-14T11:07:56;4.53;;;1.70;;
7989;SDS011;4040;42.848;23.034;2023-12-14T11:10:36;3.53;;;1.60;;
7989;SDS011;4040;42.848;23.034;2023-12-14T11:13:07;2.70;;;1.67;;
7989;SDS011;4040;42.848;23.034;2023-12-14T11:15:37;2.73;;;1.47;;
7989;SDS011;4040;42.848;23.034;2023-12-14T11:20:53;2.83;;;1.60;;
7989;SDS011;4040;42.848;23.034;2023-12-14T11:26:10;4.37;;;1.70;;
7989;SDS011;4040;42.848;23.034;2023-12-14T11:28:39;2.03;;;1.33;;
7989;SDS011;4040;42.848;23.034;2023-12-14T11:31:09;2.13;;;1.53;;
7989;SDS011;4040;42.848;23.034;2023-12-14T11:33:37;2.03;;;1.10;;
7989;SDS011;4040;42.848;23.034;2023-12-14T11:36:05;2.77;;;1.57;;
7989;SDS011;4040;42.848;23.034;2023-12-14T11:38:34;3.03;;;1.90;;
7989;SDS011;4040;42.848;23.034;2023-12-14T11:41:02;3.50;;;1.40;;
7989;SDS011;4040;42.848;23.034;2023-12-14T11:43:29;3.33;;;1.83;;
7989;SDS011;4040;42.848;23.034;2023-12-14T11:46:06;4.37;;;1.57;;
7989;SDS011;4040;42.848;23.034;2023-12-14T11:48:34;2.13;;;1.40;;
7989;SDS011;4040;42.848;23.034;2023-12-14T11:51:01;9.50;;;2.50;;
7989;SDS011;4040;42.848;23.034;2023-12-14T11:53:29;1.93;;;1.40;;
7989;SDS011;4040;42.848;23.034;2023-12-14T11:55:58;3.90;;;1.43;;
7989;SDS011;4040;42.848;23.034;2023-12-14T11:58:28;1.53;;;1.20;;
7989;SDS011;4040;42.848;23.034;2023-12-14T12:00:55;2.87;;;1.40;;
7989;SDS011;4040;42.848;23.034;2023-12-14T12:03:24;3.77;;;1.63;;
7989;SDS011;4040;42.848;23.034;2023-12-14T12:05:51;1.70;;;1.33;;
7989;SDS011;4040;42.848;23.034;2023-12-14T12:08:19;3.33;;;1.50;;
7989;SDS011;4040;42.848;23.034;2023-12-14T12:10:47;2.63;;;1.67;;
7989;SDS011;4040;42.848;23.034;2023-12-14T12:13:16;3.10;;;1.83;;
7989;SDS011;4040;42.848;23.034;2023-12-14T12:15:44;2.43;;;1.17;;
7989;SDS011;4040;42.848;23.034;2023-12-14T12:18:12;2.80;;;1.30;;
7989;SDS011;4040;42.848;23.034;2023-12-14T12:20:42;2.27;;;1.50;;
7989;SDS011;4040;42.848;23.034;2023-12-14T12:23:10;3.63;;;1.70;;
7989;SDS011;4040;42.848;23.034;2023-12-14T12:25:37;1.10;;;1.00;;
7989;SDS011;4040;42.848;23.034;2023-12-14T12:28:05;1.80;;;1.33;;
7989;SDS011;4040;42.848;23.034;2023-12-14T12:30:32;1.03;;;0.83;;
7989;SDS011;4040;42.848;23.034;2023-12-14T12:33:00;2.07;;;1.30;;
7989;SDS011;4040;42.848;23.034;2023-12-14T12:35:27;2.50;;;1.30;;
7989;SDS011;4040;42.848;23.034;2023-12-14T12:37:59;2.17;;;1.60;;
7989;SDS011;4040;42.848;23.034;2023-12-14T12:40:27;1.77;;;1.00;;
7989;SDS011;4040;42.848;23.034;2023-12-14T12:42:56;2.43;;;1.70;;
7989;SDS011;4040;42.848;23.034;2023-12-14T12:45:23;1.83;;;1.20;;
7989;SDS011;4040;42.848;23.034;2023-12-14T12:47:53;3.90;;;1.20;;
7989;SDS011;4040;42.848;23.034;2023-12-14T12:50:20;2.13;;;1.57;;
7989;SDS011;4040;42.848;23.034;2023-12-14T12:52:47;4.57;;;2.07;;
7989;SDS011;4040;42.848;23.034;2023-12-14T12:55:17;2.87;;;2.10;;
7989;SDS011;4040;42.848;23.034;2023-12-14T12:57:45;6.53;;;2.87;;
7989;SDS011;4040;42.848;23.034;2023-12-14T13:00:13;4.27;;;2.50;;
7989;SDS011;4040;42.848;23.034;2023-12-14T13:02:42;3.33;;;1.87;;
7989;SDS011;4040;42.848;23.034;2023-12-14T13:05:10;2.90;;;2.00;;
7989;SDS011;4040;42.848;23.034;2023-12-14T13:07:38;3.43;;;2.17;;
7989;SDS011;4040;42.848;23.034;2023-12-14T13:10:06;4.93;;;1.90;;
7989;SDS011;4040;42.848;23.034;2023-12-14T13:12:35;5.17;;;2.37;;
7989;SDS011;4040;42.848;23.034;2023-12-14T13:15:03;1.20;;;1.10;;
7989;SDS011;4040;42.848;23.034;2023-12-14T13:17:31;1.23;;;1.03;;
7989;SDS011;4040;42.848;23.034;2023-12-14T13:19:59;3.43;;;2.20;;
7989;SDS011;4040;42.848;23.034;2023-12-14T13:22:26;1.40;;;0.90;;
7989;SDS011;4040;42.848;23.034;2023-12-14T13:24:54;1.47;;;1.20;;
7989;SDS011;4040;42.848;23.034;2023-12-14T13:27:21;2.60;;;1.40;;
7989;SDS011;4040;42.848;23.034;2023-12-14T13:29:51;1.80;;;1.43;;
7989;SDS011;4040;42.848;23.034;2023-12-14T13:32:19;6.30;;;1.83;;
7989;SDS011;4040;42.848;23.034;2023-12-14T13:34:47;1.90;;;1.57;;
7989;SDS011;4040;42.848;23.034;2023-12-14T13:37:14;2.07;;;1.53;;
7989;SDS011;4040;42.848;23.034;2023-12-14T13:39:41;3.60;;;2.23;;
7989;SDS011;4040;42.848;23.034;2023-12-14T13:42:09;1.53;;;1.20;;
7989;SDS011;4040;42.848;23.034;2023-12-14T13:44:35;1.60;;;1.43;;
7989;SDS011;4040;42.848;23.034;2023-12-14T13:47:04;2.33;;;2.13;;
7989;SDS011;4040;42.848;23.034;2023-12-14T13:49:32;2.57;;;2.07;;
7989;SDS011;4040;42.848;23.034;2023-12-14T13:52:00;2.27;;;1.40;;
7989;SDS011;4040;42.848;23.034;2023-12-14T13:54:28;1.80;;;0.90;;
7989;SDS011;4040;42.848;23.034;2023-12-14T13:56:55;5.87;;;2.17;;
7989;SDS011;4040;42.848;23.034;2023-12-14T13:59:23;1.00;;;0.90;;
7989;SDS011;4040;42.848;23.034;2023-12-14T14:01:50;2.70;;;1.40;;
7989;SDS011;4040;42.848;23.034;2023-12-14T14:04:19;2.07;;;1.83;;
7989;SDS011;4040;42.848;23.034;2023-12-14T14:06:47;2.10;;;1.83;;
7989;SDS011;4040;42.848;23.034;2023-12-14T14:09:14;3.30;;;1.90;;
7989;SDS011;4040;42.848;23.034;2023-12-14T14:11:42;3.23;;;1.80;;
7989;SDS011;4040;42.848;23.034;2023-12-14T14:14:12;4.10;;;2.37;;
7989;SDS011;4040;42.848;23.034;2023-12-14T14:16:40;3.37;;;2.10;;
7989;SDS011;4040;42.848;23.034;2023-12-14T14:19:08;2.87;;;1.30;;
7989;SDS011;4040;42.848;23.034;2023-12-14T14:21:37;4.63;;;2.67;;
7989;SDS011;4040;42.848;23.034;2023-12-14T14:24:04;1.23;;;1.10;;
7989;SDS011;4040;42.848;23.034;2023-12-14T14:26:32;6.17;;;2.37;;
7989;SDS011;4040;42.848;23.034;2023-12-14T14:29:00;5.17;;;2.70;;
7989;SDS011;4040;42.848;23.034;2023-12-14T14:31:27;7.53;;;4.17;;
7989;SDS011;4040;42.848;23.034;2023-12-14T14:33:57;6.03;;;3.23;;
7989;SDS011;4040;42.848;23.034;2023-12-14T14:36:25;2.20;;;2.00;;
7989;SDS011;4040;42.848;23.034;2023-12-14T14:38:54;6.87;;;3.33;;
7989;SDS011;4040;42.848;23.034;2023-12-14T14:41:22;5.07;;;3.17;;
7989;SDS011;4040;42.848;23.034;2023-12-14T14:43:49;5.43;;;3.30;;
7989;SDS011;4040;42.848;23.034;2023-12-14T14:46:17;4.93;;;2.43;;
7989;SDS011;4040;42.848;23.034;2023-12-14T14:48:44;8.10;;;4.20;;
7989;SDS011;4040;42.848;23.034;2023-12-14T14:51:12;11.20;;;3.57;;
7989;SDS011;4040;42.848;23.034;2023-12-14T14:53:40;5.60;;;3.23;;
7989;SDS011;4040;42.848;23.034;2023-12-14T14:56:10;4.57;;;2.57;;